sensor_id;sensor_type;location;lat;lon;timestamp;temperature;humidity
64634;DHT22;51043;52.406;9.690;2022-09-25T00:01:03;12.50;99.90
64634;DHT22;51043;52.406;9.690;2022-09-25T00:03:31;12.50;99.90
64634;DHT22;51043;52.406;9.690;2022-09-25T00:06:03;12.60;99.90
64634;DHT22;51043;52.406;9.690;2022-09-25T00:08:30;12.50;99.90
64634;DHT22;51043;52.406;9.690;2022-09-25T00:10:57;12.50;99.90
64634;DHT22;51043;52.406;9.690;2022-09-25T00:13:25;12.40;99.90
64634;DHT22;51043;52.406;9.690;2022-09-25T00:15:54;12.40;99.90
64634;DHT22;51043;52.406;9.690;2022-09-25T00:18:23;12.40;99.90
64634;DHT22;51043;52.406;9.690;2022-09-25T00:21:12;12.40;99.90
64634;DHT22;51043;52.406;9.690;2022-09-25T00:23:40;12.40;99.90
64634;DHT22;51043;52.406;9.690;2022-09-25T00:26:10;12.30;99.90
64634;DHT22;51043;52.406;9.690;2022-09-25T00:28:38;12.40;99.90
64634;DHT22;51043;52.406;9.690;2022-09-25T00:31:07;12.40;99.90
64634;DHT22;51043;52.406;9.690;2022-09-25T00:33:40;12.30;99.90
64634;DHT22;51043;52.406;9.690;2022-09-25T00:36:09;12.30;99.90
64634;DHT22;51043;52.406;9.690;2022-09-25T00:38:37;12.30;99.90
64634;DHT22;51043;52.406;9.690;2022-09-25T00:41:05;12.30;99.90
64634;DHT22;51043;52.406;9.690;2022-09-25T00:43:48;12.30;99.90
64634;DHT22;51043;52.406;9.690;2022-09-25T00:49:04;12.30;99.90
64634;DHT22;51043;52.406;9.690;2022-09-25T00:51:36;12.30;99.90
64634;DHT22;51043;52.406;9.690;2022-09-25T00:54:09;12.30;99.90
64634;DHT22;51043;52.406;9.690;2022-09-25T00:56:42;12.30;99.90
64634;DHT22;51043;52.406;9.690;2022-09-25T00:59:17;12.20;99.90
64634;DHT22;51043;52.406;9.690;2022-09-25T01:01:45;12.20;99.90
64634;DHT22;51043;52.406;9.690;2022-09-25T01:04:13;12.20;99.90
64634;DHT22;51043;52.406;9.690;2022-09-25T01:06:41;12.20;99.90
64634;DHT22;51043;52.406;9.690;2022-09-25T01:09:08;12.20;99.90
64634;DHT22;51043;52.406;9.690;2022-09-25T01:11:35;12.20;99.90
64634;DHT22;51043;52.406;9.690;2022-09-25T01:14:03;12.20;99.90
64634;DHT22;51043;52.406;9.690;2022-09-25T01:16:51;12.20;99.90
64634;DHT22;51043;52.406;9.690;2022-09-25T01:19:55;12.20;99.90
64634;DHT22;51043;52.406;9.690;2022-09-25T01:28:50;12.20;99.90
64634;DHT22;51043;52.406;9.690;2022-09-25T01:31:38;12.20;99.90
64634;DHT22;51043;52.406;9.690;2022-09-25T01:34:16;12.20;99.90
64634;DHT22;51043;52.406;9.690;2022-09-25T01:36:50;12.20;99.90
64634;DHT22;51043;52.406;9.690;2022-09-25T01:39:27;12.20;99.90
64634;DHT22;51043;52.406;9.690;2022-09-25T01:42:12;12.20;99.90
64634;DHT22;51043;52.406;9.690;2022-09-25T01:44:55;12.10;99.90
64634;DHT22;51043;52.406;9.690;2022-09-25T01:47:26;12.20;99.90
64634;DHT22;51043;52.406;9.690;2022-09-25T01:49:58;12.10;99.90
64634;DHT22;51043;52.406;9.690;2022-09-25T01:52:39;12.10;99.90
64634;DHT22;51043;52.406;9.690;2022-09-25T01:55:17;12.20;99.90
64634;DHT22;51043;52.406;9.690;2022-09-25T01:58:28;12.10;99.90
64634;DHT22;51043;52.406;9.690;2022-09-25T02:01:01;12.10;99.90
64634;DHT22;51043;52.406;9.690;2022-09-25T02:03:48;12.20;99.90
64634;DHT22;51043;52.406;9.690;2022-09-25T02:06:18;12.10;99.90
64634;DHT22;51043;52.406;9.690;2022-09-25T02:08:53;12.10;99.90
64634;DHT22;51043;52.406;9.690;2022-09-25T02:11:24;12.10;99.90
64634;DHT22;51043;52.406;9.690;2022-09-25T02:14:19;12.10;99.90
64634;DHT22;51043;52.406;9.690;2022-09-25T02:16:50;12.10;99.90
64634;DHT22;51043;52.406;9.690;2022-09-25T02:19:19;12.10;99.90
64634;DHT22;51043;52.406;9.690;2022-09-25T02:22:22;12.10;99.90
64634;DHT22;51043;52.406;9.690;2022-09-25T02:25:24;12.10;99.90
64634;DHT22;51043;52.406;9.690;2022-09-25T02:27:55;12.10;99.90
64634;DHT22;51043;52.406;9.690;2022-09-25T02:30:22;12.10;99.90
64634;DHT22;51043;52.406;9.690;2022-09-25T02:32:49;12.00;99.90
64634;DHT22;51043;52.406;9.690;2022-09-25T02:35:16;12.00;99.90
64634;DHT22;51043;52.406;9.690;2022-09-25T02:37:44;12.00;99.90
64634;DHT22;51043;52.406;9.690;2022-09-25T02:40:11;12.00;99.90
64634;DHT22;51043;52.406;9.690;2022-09-25T02:42:50;12.00;99.90
64634;DHT22;51043;52.406;9.690;2022-09-25T02:45:45;12.00;99.90
64634;DHT22;51043;52.406;9.690;2022-09-25T02:48:47;12.00;99.90
64634;DHT22;51043;52.406;9.690;2022-09-25T02:54:23;12.00;99.90
64634;DHT22;51043;52.406;9.690;2022-09-25T02:57:05;11.90;99.90
64634;DHT22;51043;52.406;9.690;2022-09-25T02:59:43;11.90;99.90
64634;DHT22;51043;52.406;9.690;2022-09-25T03:02:14;11.90;99.90
64634;DHT22;51043;52.406;9.690;2022-09-25T03:04:43;11.90;99.90
64634;DHT22;51043;52.406;9.690;2022-09-25T03:07:10;12.00;99.90
64634;DHT22;51043;52.406;9.690;2022-09-25T03:09:39;12.00;99.90
64634;DHT22;51043;52.406;9.690;2022-09-25T03:12:07;11.90;99.90
64634;DHT22;51043;52.406;9.690;2022-09-25T03:14:34;12.00;99.90
64634;DHT22;51043;52.406;9.690;2022-09-25T03:17:02;12.00;99.90
64634;DHT22;51043;52.406;9.690;2022-09-25T03:19:31;11.80;99.90
64634;DHT22;51043;52.406;9.690;2022-09-25T03:21:59;11.90;99.90
64634;DHT22;51043;52.406;9.690;2022-09-25T03:24:26;11.90;99.90
64634;DHT22;51043;52.406;9.690;2022-09-25T03:26:53;11.80;99.90
64634;DHT22;51043;52.406;9.690;2022-09-25T03:29:21;11.90;99.90
64634;DHT22;51043;52.406;9.690;2022-09-25T03:31:49;11.90;99.90
64634;DHT22;51043;52.406;9.690;2022-09-25T03:34:17;11.80;99.90
64634;DHT22;51043;52.406;9.690;2022-09-25T03:36:44;11.90;99.90
64634;DHT22;51043;52.406;9.690;2022-09-25T03:39:16;11.90;99.90
64634;DHT22;51043;52.406;9.690;2022-09-25T03:41:43;11.90;99.90
64634;DHT22;51043;52.406;9.690;2022-09-25T03:44:11;11.90;99.90
64634;DHT22;51043;52.406;9.690;2022-09-25T03:46:38;11.90;99.90
64634;DHT22;51043;52.406;9.690;2022-09-25T03:49:06;11.80;99.90
64634;DHT22;51043;52.406;9.690;2022-09-25T03:51:33;11.80;99.90
64634;DHT22;51043;52.406;9.690;2022-09-25T03:54:01;11.90;99.90
64634;DHT22;51043;52.406;9.690;2022-09-25T03:56:29;11.90;99.90
64634;DHT22;51043;52.406;9.690;2022-09-25T03:58:56;11.90;99.90
64634;DHT22;51043;52.406;9.690;2022-09-25T04:01:25;11.80;99.90
64634;DHT22;51043;52.406;9.690;2022-09-25T04:03:52;11.80;99.90
64634;DHT22;51043;52.406;9.690;2022-09-25T04:06:21;11.80;99.90
64634;DHT22;51043;52.406;9.690;2022-09-25T04:08:50;11.80;99.90
64634;DHT22;51043;52.406;9.690;2022-09-25T04:11:19;11.80;99.90
64634;DHT22;51043;52.406;9.690;2022-09-25T04:13:46;11.80;99.90
64634;DHT22;51043;52.406;9.690;2022-09-25T04:16:15;11.80;99.90
64634;DHT22;51043;52.406;9.690;2022-09-25T04:18:45;11.80;99.90
64634;DHT22;51043;52.406;9.690;2022-09-25T04:21:16;11.90;99.90
64634;DHT22;51043;52.406;9.690;2022-09-25T04:23:43;11.90;99.90
64634;DHT22;51043;52.406;9.690;2022-09-25T04:26:30;11.90;99.90
64634;DHT22;51043;52.406;9.690;2022-09-25T04:28:58;11.90;99.90
64634;DHT22;51043;52.406;9.690;2022-09-25T04:31:27;11.90;99.90
64634;DHT22;51043;52.406;9.690;2022-09-25T04:33:55;11.90;99.90
64634;DHT22;51043;52.406;9.690;2022-09-25T04:36:21;11.80;99.90
64634;DHT22;51043;52.406;9.690;2022-09-25T04:38:48;11.70;99.90
64634;DHT22;51043;52.406;9.690;2022-09-25T04:41:16;11.80;99.90
64634;DHT22;51043;52.406;9.690;2022-09-25T04:43:45;11.80;99.90
64634;DHT22;51043;52.406;9.690;2022-09-25T04:46:12;11.90;99.90
64634;DHT22;51043;52.406;9.690;2022-09-25T04:48:45;12.00;99.90
64634;DHT22;51043;52.406;9.690;2022-09-25T04:51:14;11.90;99.90
64634;DHT22;51043;52.406;9.690;2022-09-25T04:53:41;11.90;99.90
64634;DHT22;51043;52.406;9.690;2022-09-25T04:56:09;11.90;99.90
64634;DHT22;51043;52.406;9.690;2022-09-25T04:58:48;11.90;99.90
64634;DHT22;51043;52.406;9.690;2022-09-25T05:01:16;11.80;99.90
64634;DHT22;51043;52.406;9.690;2022-09-25T05:03:47;11.90;99.90
64634;DHT22;51043;52.406;9.690;2022-09-25T05:06:15;11.90;99.90
64634;DHT22;51043;52.406;9.690;2022-09-25T05:08:42;11.80;99.90
64634;DHT22;51043;52.406;9.690;2022-09-25T05:11:09;11.80;99.90
64634;DHT22;51043;52.406;9.690;2022-09-25T05:13:37;11.80;99.90
64634;DHT22;51043;52.406;9.690;2022-09-25T05:16:04;11.80;99.90
64634;DHT22;51043;52.406;9.690;2022-09-25T05:18:31;11.90;99.90
64634;DHT22;51043;52.406;9.690;2022-09-25T05:21:05;11.90;99.90
64634;DHT22;51043;52.406;9.690;2022-09-25T05:23:32;11.80;99.90
64634;DHT22;51043;52.406;9.690;2022-09-25T05:25:59;11.90;99.90
64634;DHT22;51043;52.406;9.690;2022-09-25T05:28:31;11.80;99.90
64634;DHT22;51043;52.406;9.690;2022-09-25T05:31:03;11.80;99.90
64634;DHT22;51043;52.406;9.690;2022-09-25T05:33:31;11.90;99.90
64634;DHT22;51043;52.406;9.690;2022-09-25T05:36:03;11.80;99.90
64634;DHT22;51043;52.406;9.690;2022-09-25T05:38:31;11.80;99.90
64634;DHT22;51043;52.406;9.690;2022-09-25T05:41:07;11.80;99.90
64634;DHT22;51043;52.406;9.690;2022-09-25T05:43:43;11.80;99.90
64634;DHT22;51043;52.406;9.690;2022-09-25T05:46:12;11.80;99.90
64634;DHT22;51043;52.406;9.690;2022-09-25T05:48:43;11.80;99.90
64634;DHT22;51043;52.406;9.690;2022-09-25T05:51:09;11.80;99.90
64634;DHT22;51043;52.406;9.690;2022-09-25T05:53:37;11.90;99.90
64634;DHT22;51043;52.406;9.690;2022-09-25T05:56:05;11.80;99.90
64634;DHT22;51043;52.406;9.690;2022-09-25T05:58:33;11.90;99.90
64634;DHT22;51043;52.406;9.690;2022-09-25T06:01:03;11.90;99.90
64634;DHT22;51043;52.406;9.690;2022-09-25T06:03:30;11.90;99.90
64634;DHT22;51043;52.406;9.690;2022-09-25T06:05:58;11.80;99.90
64634;DHT22;51043;52.406;9.690;2022-09-25T06:08:27;11.90;99.90
64634;DHT22;51043;52.406;9.690;2022-09-25T06:10:57;11.90;99.90
64634;DHT22;51043;52.406;9.690;2022-09-25T06:13:25;11.90;99.90
64634;DHT22;51043;52.406;9.690;2022-09-25T06:15:52;12.00;99.90
64634;DHT22;51043;52.406;9.690;2022-09-25T06:18:21;12.00;99.90
64634;DHT22;51043;52.406;9.690;2022-09-25T06:20:49;12.00;99.90
64634;DHT22;51043;52.406;9.690;2022-09-25T06:23:17;12.10;99.90
64634;DHT22;51043;52.406;9.690;2022-09-25T06:25:45;12.10;99.90
64634;DHT22;51043;52.406;9.690;2022-09-25T06:28:12;12.10;99.90
64634;DHT22;51043;52.406;9.690;2022-09-25T06:30:39;12.10;99.90
64634;DHT22;51043;52.406;9.690;2022-09-25T06:33:09;12.10;99.90
64634;DHT22;51043;52.406;9.690;2022-09-25T06:35:46;12.20;99.90
64634;DHT22;51043;52.406;9.690;2022-09-25T06:38:14;12.20;99.90
64634;DHT22;51043;52.406;9.690;2022-09-25T06:40:41;12.20;99.90
64634;DHT22;51043;52.406;9.690;2022-09-25T06:43:10;12.20;99.90
64634;DHT22;51043;52.406;9.690;2022-09-25T06:45:37;12.20;99.90
64634;DHT22;51043;52.406;9.690;2022-09-25T06:48:07;12.20;99.90
64634;DHT22;51043;52.406;9.690;2022-09-25T06:50:43;12.20;99.90
64634;DHT22;51043;52.406;9.690;2022-09-25T06:53:11;12.20;99.90
64634;DHT22;51043;52.406;9.690;2022-09-25T06:55:40;12.20;99.90
64634;DHT22;51043;52.406;9.690;2022-09-25T06:58:10;12.30;99.90
64634;DHT22;51043;52.406;9.690;2022-09-25T07:00:37;12.40;99.90
64634;DHT22;51043;52.406;9.690;2022-09-25T07:03:04;12.40;99.90
64634;DHT22;51043;52.406;9.690;2022-09-25T07:05:50;12.50;99.90
64634;DHT22;51043;52.406;9.690;2022-09-25T07:08:18;12.40;99.90
64634;DHT22;51043;52.406;9.690;2022-09-25T07:10:53;12.50;99.90
64634;DHT22;51043;52.406;9.690;2022-09-25T07:13:22;12.50;99.90
64634;DHT22;51043;52.406;9.690;2022-09-25T07:15:58;12.50;99.90
64634;DHT22;51043;52.406;9.690;2022-09-25T07:18:27;12.50;99.90
64634;DHT22;51043;52.406;9.690;2022-09-25T07:21:03;12.50;99.90
64634;DHT22;51043;52.406;9.690;2022-09-25T07:23:31;12.50;99.90
64634;DHT22;51043;52.406;9.690;2022-09-25T07:26:10;12.50;99.90
64634;DHT22;51043;52.406;9.690;2022-09-25T07:28:40;12.40;99.90
64634;DHT22;51043;52.406;9.690;2022-09-25T07:31:13;12.40;99.90
64634;DHT22;51043;52.406;9.690;2022-09-25T07:33:41;12.40;99.90
64634;DHT22;51043;52.406;9.690;2022-09-25T07:36:08;12.50;99.90
64634;DHT22;51043;52.406;9.690;2022-09-25T07:38:35;12.50;99.90
64634;DHT22;51043;52.406;9.690;2022-09-25T07:41:04;12.50;99.90
64634;DHT22;51043;52.406;9.690;2022-09-25T07:43:32;12.50;99.90
64634;DHT22;51043;52.406;9.690;2022-09-25T07:46:00;12.40;99.90
64634;DHT22;51043;52.406;9.690;2022-09-25T07:48:27;12.40;99.90
64634;DHT22;51043;52.406;9.690;2022-09-25T07:51:01;12.50;99.90
64634;DHT22;51043;52.406;9.690;2022-09-25T07:53:29;12.40;99.90
64634;DHT22;51043;52.406;9.690;2022-09-25T07:55:57;12.50;99.90
64634;DHT22;51043;52.406;9.690;2022-09-25T07:58:27;12.50;99.90
64634;DHT22;51043;52.406;9.690;2022-09-25T08:00:58;12.40;99.90
64634;DHT22;51043;52.406;9.690;2022-09-25T08:03:26;12.40;99.90
64634;DHT22;51043;52.406;9.690;2022-09-25T08:05:59;12.40;99.90
64634;DHT22;51043;52.406;9.690;2022-09-25T08:08:27;12.40;99.90
64634;DHT22;51043;52.406;9.690;2022-09-25T08:11:05;12.50;99.90
64634;DHT22;51043;52.406;9.690;2022-09-25T08:13:33;12.40;99.90
64634;DHT22;51043;52.406;9.690;2022-09-25T08:16:02;12.50;99.90
64634;DHT22;51043;52.406;9.690;2022-09-25T08:18:29;12.40;99.90
64634;DHT22;51043;52.406;9.690;2022-09-25T08:21:03;12.50;99.90
64634;DHT22;51043;52.406;9.690;2022-09-25T08:23:31;12.50;99.90
64634;DHT22;51043;52.406;9.690;2022-09-25T08:25:58;12.50;99.90
64634;DHT22;51043;52.406;9.690;2022-09-25T08:28:26;12.50;99.90
64634;DHT22;51043;52.406;9.690;2022-09-25T08:30:53;12.50;99.90
64634;DHT22;51043;52.406;9.690;2022-09-25T08:33:21;12.50;99.90
64634;DHT22;51043;52.406;9.690;2022-09-25T08:36:00;12.50;99.90
64634;DHT22;51043;52.406;9.690;2022-09-25T08:38:28;12.50;99.90
64634;DHT22;51043;52.406;9.690;2022-09-25T08:52:18;12.80;99.90
64634;DHT22;51043;52.406;9.690;2022-09-25T08:54:47;12.80;99.90
64634;DHT22;51043;52.406;9.690;2022-09-25T08:57:36;12.80;99.90
64634;DHT22;51043;52.406;9.690;2022-09-25T09:00:16;12.80;99.90
64634;DHT22;51043;52.406;9.690;2022-09-25T09:02:52;12.80;99.90
64634;DHT22;51043;52.406;9.690;2022-09-25T09:05:29;12.80;99.90
64634;DHT22;51043;52.406;9.690;2022-09-25T09:08:02;12.80;99.90
64634;DHT22;51043;52.406;9.690;2022-09-25T09:10:40;12.80;99.90
64634;DHT22;51043;52.406;9.690;2022-09-25T09:18:54;12.90;99.90
64634;DHT22;51043;52.406;9.690;2022-09-25T09:21:36;12.80;99.90
64634;DHT22;51043;52.406;9.690;2022-09-25T09:24:04;12.80;99.90
64634;DHT22;51043;52.406;9.690;2022-09-25T09:27:01;12.80;99.90
64634;DHT22;51043;52.406;9.690;2022-09-25T09:29:54;12.90;99.90
64634;DHT22;51043;52.406;9.690;2022-09-25T09:35:40;12.90;99.90
64634;DHT22;51043;52.406;9.690;2022-09-25T09:40:56;13.00;99.90
64634;DHT22;51043;52.406;9.690;2022-09-25T09:49:15;13.20;99.90
64634;DHT22;51043;52.406;9.690;2022-09-25T09:51:56;13.40;99.90
64634;DHT22;51043;52.406;9.690;2022-09-25T09:54:34;13.40;99.90
64634;DHT22;51043;52.406;9.690;2022-09-25T09:59:53;13.50;99.90
64634;DHT22;51043;52.406;9.690;2022-09-25T10:02:28;13.40;99.90
64634;DHT22;51043;52.406;9.690;2022-09-25T10:04:56;13.50;99.90
64634;DHT22;51043;52.406;9.690;2022-09-25T10:07:25;13.50;99.90
64634;DHT22;51043;52.406;9.690;2022-09-25T10:09:54;13.50;99.90
64634;DHT22;51043;52.406;9.690;2022-09-25T10:12:31;13.60;99.90
64634;DHT22;51043;52.406;9.690;2022-09-25T10:15:02;13.50;99.90
64634;DHT22;51043;52.406;9.690;2022-09-25T10:17:30;13.50;99.90
64634;DHT22;51043;52.406;9.690;2022-09-25T10:20:00;13.50;99.90
64634;DHT22;51043;52.406;9.690;2022-09-25T10:22:37;13.60;99.90
64634;DHT22;51043;52.406;9.690;2022-09-25T10:25:06;13.70;99.90
64634;DHT22;51043;52.406;9.690;2022-09-25T10:27:34;13.80;99.90
64634;DHT22;51043;52.406;9.690;2022-09-25T10:30:21;14.00;99.90
64634;DHT22;51043;52.406;9.690;2022-09-25T10:32:58;14.20;99.90
64634;DHT22;51043;52.406;9.690;2022-09-25T10:35:41;14.30;99.90
64634;DHT22;51043;52.406;9.690;2022-09-25T10:38:22;14.50;99.90
64634;DHT22;51043;52.406;9.690;2022-09-25T10:41:11;14.60;99.90
64634;DHT22;51043;52.406;9.690;2022-09-25T10:43:58;14.60;99.90
64634;DHT22;51043;52.406;9.690;2022-09-25T10:46:35;14.50;99.90
64634;DHT22;51043;52.406;9.690;2022-09-25T10:49:25;14.40;99.90
64634;DHT22;51043;52.406;9.690;2022-09-25T10:52:13;14.40;99.90
64634;DHT22;51043;52.406;9.690;2022-09-25T10:54:40;14.30;99.90
64634;DHT22;51043;52.406;9.690;2022-09-25T10:57:29;14.30;99.90
64634;DHT22;51043;52.406;9.690;2022-09-25T11:00:02;14.40;99.90
64634;DHT22;51043;52.406;9.690;2022-09-25T11:02:38;14.50;99.90
64634;DHT22;51043;52.406;9.690;2022-09-25T11:05:13;14.70;99.90
64634;DHT22;51043;52.406;9.690;2022-09-25T11:07:50;14.90;99.90
64634;DHT22;51043;52.406;9.690;2022-09-25T11:10:25;15.00;99.90
64634;DHT22;51043;52.406;9.690;2022-09-25T11:12:54;15.30;99.90
64634;DHT22;51043;52.406;9.690;2022-09-25T11:15:25;15.50;99.90
64634;DHT22;51043;52.406;9.690;2022-09-25T11:17:56;15.80;99.90
64634;DHT22;51043;52.406;9.690;2022-09-25T11:20:28;16.30;99.90
64634;DHT22;51043;52.406;9.690;2022-09-25T11:26:39;17.90;99.90
64634;DHT22;51043;52.406;9.690;2022-09-25T11:31:56;18.30;99.90
64634;DHT22;51043;52.406;9.690;2022-09-25T11:34:45;18.20;99.90
64634;DHT22;51043;52.406;9.690;2022-09-25T11:43:18;17.40;99.90
64634;DHT22;51043;52.406;9.690;2022-09-25T11:46:15;17.50;99.90
64634;DHT22;51043;52.406;9.690;2022-09-25T11:57:10;17.40;99.90
64634;DHT22;51043;52.406;9.690;2022-09-25T12:00:03;17.60;99.90
64634;DHT22;51043;52.406;9.690;2022-09-25T12:06:27;18.20;99.90
64634;DHT22;51043;52.406;9.690;2022-09-25T12:11:39;21.20;99.90
64634;DHT22;51043;52.406;9.690;2022-09-25T12:19:57;22.00;99.90
64634;DHT22;51043;52.406;9.690;2022-09-25T12:22:58;21.60;99.90
64634;DHT22;51043;52.406;9.690;2022-09-25T12:31:05;20.70;99.90
64634;DHT22;51043;52.406;9.690;2022-09-25T12:36:45;19.70;99.90
64634;DHT22;51043;52.406;9.690;2022-09-25T12:39:42;18.80;99.90
64634;DHT22;51043;52.406;9.690;2022-09-25T12:48:02;17.40;99.90
64634;DHT22;51043;52.406;9.690;2022-09-25T12:50:35;17.30;99.90
64634;DHT22;51043;52.406;9.690;2022-09-25T12:55:45;17.40;99.90
64634;DHT22;51043;52.406;9.690;2022-09-25T13:01:02;17.20;99.90
64634;DHT22;51043;52.406;9.690;2022-09-25T13:03:40;17.10;99.90
64634;DHT22;51043;52.406;9.690;2022-09-25T13:09:01;17.30;99.90
64634;DHT22;51043;52.406;9.690;2022-09-25T13:11:37;17.40;99.90
64634;DHT22;51043;52.406;9.690;2022-09-25T13:16:55;17.10;99.90
64634;DHT22;51043;52.406;9.690;2022-09-25T13:19:30;17.20;99.90
64634;DHT22;51043;52.406;9.690;2022-09-25T13:22:07;17.20;99.90
64634;DHT22;51043;52.406;9.690;2022-09-25T13:24:43;17.40;99.90
64634;DHT22;51043;52.406;9.690;2022-09-25T13:27:17;17.40;99.90
64634;DHT22;51043;52.406;9.690;2022-09-25T13:29:51;17.40;99.90
64634;DHT22;51043;52.406;9.690;2022-09-25T13:32:24;17.40;99.90
64634;DHT22;51043;52.406;9.690;2022-09-25T13:34:57;17.30;99.90
64634;DHT22;51043;52.406;9.690;2022-09-25T13:37:30;17.40;99.90
64634;DHT22;51043;52.406;9.690;2022-09-25T13:39:59;17.50;99.90
64634;DHT22;51043;52.406;9.690;2022-09-25T13:42:45;17.50;99.90
64634;DHT22;51043;52.406;9.690;2022-09-25T13:50:31;17.40;99.90
64634;DHT22;51043;52.406;9.690;2022-09-25T13:58:25;16.80;99.90
64634;DHT22;51043;52.406;9.690;2022-09-25T14:00:57;16.70;99.90
64634;DHT22;51043;52.406;9.690;2022-09-25T14:06:01;16.40;99.90
64634;DHT22;51043;52.406;9.690;2022-09-25T14:08:31;16.30;99.90
64634;DHT22;51043;52.406;9.690;2022-09-25T14:11:02;16.20;99.90
64634;DHT22;51043;52.406;9.690;2022-09-25T14:13:32;16.20;99.90
64634;DHT22;51043;52.406;9.690;2022-09-25T14:16:01;16.10;99.90
64634;DHT22;51043;52.406;9.690;2022-09-25T14:18:36;16.00;99.90
64634;DHT22;51043;52.406;9.690;2022-09-25T14:21:04;16.00;99.90
64634;DHT22;51043;52.406;9.690;2022-09-25T14:23:51;15.90;99.90
64634;DHT22;51043;52.406;9.690;2022-09-25T14:26:24;15.90;99.90
64634;DHT22;51043;52.406;9.690;2022-09-25T14:28:56;15.80;99.90
64634;DHT22;51043;52.406;9.690;2022-09-25T14:34:24;15.80;99.90
64634;DHT22;51043;52.406;9.690;2022-09-25T14:40:01;15.70;99.90
64634;DHT22;51043;52.406;9.690;2022-09-25T14:43:14;15.70;99.90
64634;DHT22;51043;52.406;9.690;2022-09-25T14:45:59;15.70;99.90
64634;DHT22;51043;52.406;9.690;2022-09-25T14:48:57;15.80;99.90
64634;DHT22;51043;52.406;9.690;2022-09-25T14:51:39;15.80;99.90
64634;DHT22;51043;52.406;9.690;2022-09-25T14:54:11;15.70;99.90
64634;DHT22;51043;52.406;9.690;2022-09-25T14:56:42;15.70;99.90
64634;DHT22;51043;52.406;9.690;2022-09-25T14:59:24;15.60;99.90
64634;DHT22;51043;52.406;9.690;2022-09-25T15:01:54;15.70;99.90
64634;DHT22;51043;52.406;9.690;2022-09-25T15:04:30;15.70;99.90
64634;DHT22;51043;52.406;9.690;2022-09-25T15:09:41;15.80;99.90
64634;DHT22;51043;52.406;9.690;2022-09-25T15:15:08;15.80;99.90
64634;DHT22;51043;52.406;9.690;2022-09-25T15:17:50;15.90;99.90
64634;DHT22;51043;52.406;9.690;2022-09-25T15:20:28;15.80;99.90
64634;DHT22;51043;52.406;9.690;2022-09-25T15:23:05;15.80;99.90
64634;DHT22;51043;52.406;9.690;2022-09-25T15:25:37;15.70;99.90
64634;DHT22;51043;52.406;9.690;2022-09-25T15:28:11;15.70;99.90
64634;DHT22;51043;52.406;9.690;2022-09-25T15:30:39;15.70;99.90
64634;DHT22;51043;52.406;9.690;2022-09-25T15:33:22;15.80;99.90
64634;DHT22;51043;52.406;9.690;2022-09-25T15:35:59;15.80;99.90
64634;DHT22;51043;52.406;9.690;2022-09-25T15:38:29;15.90;99.90
64634;DHT22;51043;52.406;9.690;2022-09-25T15:40:56;15.80;99.90
64634;DHT22;51043;52.406;9.690;2022-09-25T15:43:24;15.80;99.90
64634;DHT22;51043;52.406;9.690;2022-09-25T15:46:25;15.60;99.90
64634;DHT22;51043;52.406;9.690;2022-09-25T15:48:56;15.70;99.90
64634;DHT22;51043;52.406;9.690;2022-09-25T15:51:28;15.70;99.90
64634;DHT22;51043;52.406;9.690;2022-09-25T15:53:59;15.60;99.90
64634;DHT22;51043;52.406;9.690;2022-09-25T15:56:42;15.60;99.90
64634;DHT22;51043;52.406;9.690;2022-09-25T15:59:21;15.50;99.90
64634;DHT22;51043;52.406;9.690;2022-09-25T16:01:49;15.50;99.90
64634;DHT22;51043;52.406;9.690;2022-09-25T16:04:35;15.50;99.90
64634;DHT22;51043;52.406;9.690;2022-09-25T16:07:31;15.40;99.90
64634;DHT22;51043;52.406;9.690;2022-09-25T16:12:44;15.30;99.90
64634;DHT22;51043;52.406;9.690;2022-09-25T16:24:03;14.90;99.90
64634;DHT22;51043;52.406;9.690;2022-09-25T16:26:43;14.90;99.90
64634;DHT22;51043;52.406;9.690;2022-09-25T16:31:40;15.00;99.90
64634;DHT22;51043;52.406;9.690;2022-09-25T16:34:17;14.90;99.90
64634;DHT22;51043;52.406;9.690;2022-09-25T16:36:45;14.80;99.90
64634;DHT22;51043;52.406;9.690;2022-09-25T16:39:23;14.70;99.90
64634;DHT22;51043;52.406;9.690;2022-09-25T16:41:51;14.70;99.90
64634;DHT22;51043;52.406;9.690;2022-09-25T16:49:25;14.50;99.90
64634;DHT22;51043;52.406;9.690;2022-09-25T16:51:53;14.50;99.90
64634;DHT22;51043;52.406;9.690;2022-09-25T16:54:21;14.50;99.90
64634;DHT22;51043;52.406;9.690;2022-09-25T16:56:55;14.50;99.90
64634;DHT22;51043;52.406;9.690;2022-09-25T16:59:25;14.40;99.90
64634;DHT22;51043;52.406;9.690;2022-09-25T17:02:01;14.40;99.90
64634;DHT22;51043;52.406;9.690;2022-09-25T17:04:30;14.20;99.90
64634;DHT22;51043;52.406;9.690;2022-09-25T17:06:58;14.10;99.90
64634;DHT22;51043;52.406;9.690;2022-09-25T17:09:28;14.10;99.90
64634;DHT22;51043;52.406;9.690;2022-09-25T17:12:01;13.90;99.90
64634;DHT22;51043;52.406;9.690;2022-09-25T17:14:31;13.70;99.90
64634;DHT22;51043;52.406;9.690;2022-09-25T17:16:58;13.60;99.90
64634;DHT22;51043;52.406;9.690;2022-09-25T17:19:25;13.50;99.90
64634;DHT22;51043;52.406;9.690;2022-09-25T17:21:55;13.50;99.90
64634;DHT22;51043;52.406;9.690;2022-09-25T17:24:25;13.50;99.90
64634;DHT22;51043;52.406;9.690;2022-09-25T17:26:54;13.40;99.90
64634;DHT22;51043;52.406;9.690;2022-09-25T17:29:21;13.20;99.90
64634;DHT22;51043;52.406;9.690;2022-09-25T17:31:48;13.00;99.90
64634;DHT22;51043;52.406;9.690;2022-09-25T17:34:16;12.80;99.90
64634;DHT22;51043;52.406;9.690;2022-09-25T17:36:44;12.50;99.90
64634;DHT22;51043;52.406;9.690;2022-09-25T17:39:11;12.30;99.90
64634;DHT22;51043;52.406;9.690;2022-09-25T17:41:39;12.00;99.90
64634;DHT22;51043;52.406;9.690;2022-09-25T17:44:09;11.80;99.90
64634;DHT22;51043;52.406;9.690;2022-09-25T17:46:37;11.60;99.90
64634;DHT22;51043;52.406;9.690;2022-09-25T17:49:04;11.40;99.90
64634;DHT22;51043;52.406;9.690;2022-09-25T17:51:31;11.30;99.90
64634;DHT22;51043;52.406;9.690;2022-09-25T17:53:59;11.10;99.90
64634;DHT22;51043;52.406;9.690;2022-09-25T17:56:28;10.90;99.90
64634;DHT22;51043;52.406;9.690;2022-09-25T17:58:56;10.80;99.90
64634;DHT22;51043;52.406;9.690;2022-09-25T18:01:31;10.70;99.90
64634;DHT22;51043;52.406;9.690;2022-09-25T18:04:06;10.50;99.90
64634;DHT22;51043;52.406;9.690;2022-09-25T18:06:39;10.50;99.90
64634;DHT22;51043;52.406;9.690;2022-09-25T18:09:09;10.30;99.90
64634;DHT22;51043;52.406;9.690;2022-09-25T18:11:36;10.30;99.90
64634;DHT22;51043;52.406;9.690;2022-09-25T18:14:03;10.20;99.90
64634;DHT22;51043;52.406;9.690;2022-09-25T18:16:31;10.10;99.90
64634;DHT22;51043;52.406;9.690;2022-09-25T18:18:58;10.10;99.90
64634;DHT22;51043;52.406;9.690;2022-09-25T18:21:44;9.90;99.90
64634;DHT22;51043;52.406;9.690;2022-09-25T18:24:32;9.90;99.90
64634;DHT22;51043;52.406;9.690;2022-09-25T18:26:59;9.90;99.90
64634;DHT22;51043;52.406;9.690;2022-09-25T18:29:26;9.80;99.90
64634;DHT22;51043;52.406;9.690;2022-09-25T18:31:54;9.80;99.90